createdAt,value
2017-08-21T00:01:50.060Z,98.50
2017-08-21T00:04:18.961Z,97.80
2017-08-21T00:06:47.712Z,97.10
2017-08-21T00:09:16.438Z,97.20
2017-08-21T00:11:45.192Z,96.90
2017-08-21T00:14:13.922Z,97.20
2017-08-21T00:16:42.648Z,97.30
2017-08-21T00:19:11.435Z,97.40
2017-08-21T00:21:40.236Z,97.20
2017-08-21T00:24:08.988Z,97.50
2017-08-21T00:26:37.810Z,97.80
2017-08-21T00:29:06.561Z,97.00
2017-08-21T00:31:35.363Z,97.30
2017-08-21T00:34:03.799Z,97.70
2017-08-21T00:36:32.548Z,97.40
2017-08-21T00:39:01.334Z,97.30
2017-08-21T00:41:30.080Z,97.60
2017-08-21T00:43:58.876Z,98.00
2017-08-21T00:46:27.647Z,97.80
2017-08-21T00:48:56.419Z,97.70
2017-08-21T00:51:25.187Z,97.60
2017-08-21T00:53:54.005Z,97.50
2017-08-21T00:56:22.799Z,97.80
2017-08-21T00:58:51.560Z,97.80
2017-08-21T01:01:20.362Z,97.60
2017-08-21T01:03:49.157Z,97.40
2017-08-21T01:06:17.980Z,97.30
2017-08-21T01:08:47.483Z,97.80
2017-08-21T01:11:16.300Z,97.80
2017-08-21T01:13:45.064Z,97.30
2017-08-21T01:16:13.880Z,97.90
2017-08-21T01:18:42.638Z,97.50
2017-08-21T01:21:10.814Z,98.00
2017-08-21T01:23:39.627Z,97.70
2017-08-21T01:26:08.381Z,97.70
2017-08-21T01:28:37.150Z,97.40
2017-08-21T01:31:05.997Z,97.20
2017-08-21T01:34:14.920Z,97.30
2017-08-21T01:36:43.746Z,97.90
2017-08-21T01:39:12.527Z,98.10
2017-08-21T01:41:41.278Z,98.10
2017-08-21T01:44:10.069Z,98.20
2017-08-21T01:46:38.822Z,98.30
2017-08-21T01:49:07.586Z,97.90
2017-08-21T01:51:36.355Z,98.30
2017-08-21T01:54:05.147Z,98.10
2017-08-21T01:56:33.928Z,97.80
2017-08-21T01:59:02.702Z,97.60
2017-08-21T02:01:32.275Z,97.60
2017-08-21T02:04:01.096Z,97.60
2017-08-21T02:06:29.885Z,97.90
2017-08-21T02:08:58.698Z,98.30
2017-08-21T02:11:27.430Z,97.90
2017-08-21T02:13:56.213Z,98.00
2017-08-21T02:16:25.013Z,98.00
2017-08-21T02:18:54.279Z,98.00
2017-08-21T02:21:22.998Z,98.30
2017-08-21T02:23:51.725Z,98.60
2017-08-21T02:26:20.674Z,98.10
2017-08-21T02:28:49.500Z,98.10
2017-08-21T02:31:18.337Z,98.20
2017-08-21T02:33:47.137Z,98.10
2017-08-21T02:36:15.959Z,98.20
2017-08-21T02:38:47.514Z,97.60
2017-08-21T02:41:16.267Z,98.10
2017-08-21T02:43:45.031Z,98.20
2017-08-21T02:46:13.863Z,98.10
2017-08-21T02:48:43.985Z,97.90
2017-08-21T02:51:12.777Z,97.90
2017-08-21T02:53:41.555Z,98.30
2017-08-21T02:56:10.344Z,98.20
2017-08-21T02:58:39.084Z,98.30
2017-08-21T03:01:07.891Z,98.20
2017-08-21T03:03:36.675Z,98.20
2017-08-21T03:06:05.459Z,98.50
2017-08-21T03:08:34.232Z,98.30
2017-08-21T03:11:03.012Z,98.30
2017-08-21T03:13:31.816Z,98.50
2017-08-21T03:16:00.609Z,98.30
2017-08-21T03:18:29.413Z,98.70
2017-08-21T03:20:58.181Z,98.20
2017-08-21T03:23:26.966Z,98.30
2017-08-21T03:25:55.767Z,98.30
2017-08-21T03:28:24.587Z,98.40
2017-08-21T03:30:53.401Z,97.80
2017-08-21T03:33:22.166Z,98.20
2017-08-21T03:35:50.951Z,98.20
2017-08-21T03:38:19.702Z,98.30
2017-08-21T03:40:48.477Z,98.20
2017-08-21T03:43:17.275Z,98.20
2017-08-21T03:45:46.076Z,98.20
2017-08-21T03:48:14.795Z,98.40
2017-08-21T03:50:43.573Z,98.50
2017-08-21T03:53:12.331Z,98.80
2017-08-21T03:55:41.108Z,98.50
2017-08-21T03:58:09.924Z,98.50
2017-08-21T04:00:38.655Z,98.90
2017-08-21T04:03:07.435Z,98.80
2017-08-21T04:05:36.220Z,98.70
2017-08-21T04:08:04.976Z,98.60
2017-08-21T04:10:33.721Z,99.10
2017-08-21T04:13:02.559Z,99.20
2017-08-21T04:15:31.367Z,99.40
2017-08-21T04:18:00.103Z,99.80
2017-08-21T04:20:28.844Z,99.70
2017-08-21T04:22:57.656Z,99.20
2017-08-21T04:25:26.454Z,99.10
2017-08-21T04:27:55.258Z,99.80
2017-08-21T04:30:24.099Z,99.80
2017-08-21T04:32:52.870Z,99.90
2017-08-21T04:35:21.664Z,99.60
2017-08-21T04:37:51.279Z,99.70
2017-08-21T04:40:20.068Z,99.60
2017-08-21T04:42:48.871Z,99.50
2017-08-21T04:45:17.875Z,99.10
2017-08-21T04:47:46.371Z,99.20
2017-08-21T04:50:15.170Z,99.60
2017-08-21T04:52:43.948Z,98.50
2017-08-21T04:55:12.480Z,98.20
2017-08-21T04:57:41.010Z,96.40
2017-08-21T05:00:09.551Z,95.80
2017-08-21T05:02:38.138Z,95.80
2017-08-21T05:05:06.669Z,94.10
2017-08-21T05:07:35.172Z,94.70
2017-08-21T05:10:03.720Z,95.00
2017-08-21T05:12:32.274Z,93.90
2017-08-21T05:15:00.772Z,93.80
2017-08-21T05:17:29.259Z,93.10
2017-08-21T05:19:57.788Z,94.70
2017-08-21T05:22:26.283Z,94.10
2017-08-21T05:24:54.845Z,94.60
2017-08-21T05:27:23.318Z,94.40
2017-08-21T05:29:51.776Z,92.10
2017-08-21T05:32:20.253Z,91.40
2017-08-21T05:34:48.722Z,90.20
2017-08-21T05:37:17.186Z,91.20
2017-08-21T05:39:46.451Z,92.50
2017-08-21T05:42:14.904Z,92.50
2017-08-21T05:44:43.423Z,93.40
2017-08-21T05:47:11.986Z,91.70
2017-08-21T05:49:40.450Z,91.60
2017-08-21T05:52:08.982Z,89.10
2017-08-21T05:54:37.451Z,89.70
2017-08-21T05:57:06.700Z,86.90
2017-08-21T05:59:35.175Z,86.90
2017-08-21T06:02:03.698Z,87.00
2017-08-21T06:04:32.173Z,85.10
2017-08-21T06:07:00.599Z,84.00
2017-08-21T06:09:29.033Z,84.20
2017-08-21T06:11:57.485Z,84.00
2017-08-21T06:14:25.952Z,84.20
2017-08-21T06:16:54.377Z,84.20
2017-08-21T06:19:22.825Z,83.40
2017-08-21T06:21:51.268Z,80.70
2017-08-21T06:24:19.733Z,80.10
2017-08-21T06:26:48.404Z,79.80
2017-08-21T06:29:16.910Z,79.00
2017-08-21T06:31:45.339Z,79.20
2017-08-21T06:34:13.767Z,81.00
2017-08-21T06:36:42.270Z,80.50
2017-08-21T06:39:10.781Z,79.70
2017-08-21T06:41:39.238Z,79.80
2017-08-21T06:44:07.681Z,79.90
2017-08-21T06:46:36.127Z,82.10
2017-08-21T06:49:04.560Z,83.10
2017-08-21T06:51:32.986Z,84.40
2017-08-21T06:54:01.620Z,79.70
2017-08-21T06:56:30.054Z,83.90
2017-08-21T06:58:58.549Z,85.90
2017-08-21T07:01:27.048Z,88.20
2017-08-21T07:03:55.477Z,88.50
2017-08-21T07:06:23.931Z,83.20
2017-08-21T07:08:52.379Z,84.80
2017-08-21T07:11:20.857Z,86.50
2017-08-21T07:13:49.294Z,87.40
2017-08-21T07:16:17.721Z,82.40
2017-08-21T07:18:46.329Z,85.90
2017-08-21T07:21:14.755Z,82.70
2017-08-21T07:23:43.171Z,84.00
2017-08-21T07:26:11.629Z,82.30
2017-08-21T07:28:40.047Z,80.40
2017-08-21T07:31:08.462Z,82.10
2017-08-21T07:33:36.917Z,75.10
2017-08-21T07:36:05.333Z,72.10
2017-08-21T07:38:33.740Z,70.60
2017-08-21T07:41:02.945Z,57.10
2017-08-21T07:43:31.361Z,57.00
2017-08-21T07:45:59.779Z,58.20
2017-08-21T07:48:28.215Z,53.20
2017-08-21T07:50:56.641Z,54.90
2017-08-21T07:53:25.053Z,45.30
2017-08-21T07:55:53.480Z,45.40
2017-08-21T07:58:21.892Z,42.90
2017-08-21T08:00:50.340Z,42.50
2017-08-21T08:03:18.746Z,43.50
2017-08-21T08:05:47.165Z,45.00
2017-08-21T08:08:15.606Z,40.60
2017-08-21T08:10:44.043Z,41.00
2017-08-21T08:13:12.471Z,40.40
2017-08-21T08:15:40.892Z,39.00
2017-08-21T08:18:09.291Z,38.40
2017-08-21T08:20:37.708Z,36.70
2017-08-21T08:23:06.126Z,39.30
2017-08-21T08:25:34.534Z,35.90
2017-08-21T08:28:02.950Z,35.00
2017-08-21T08:30:31.391Z,38.00
2017-08-21T08:32:59.825Z,41.90
2017-08-21T08:35:28.229Z,39.40
2017-08-21T08:37:56.654Z,39.40
2017-08-21T08:40:25.118Z,40.50
2017-08-21T08:42:53.537Z,37.70
2017-08-21T08:45:21.951Z,38.60
2017-08-21T08:47:50.401Z,41.80
2017-08-21T08:50:18.841Z,41.20
2017-08-21T08:52:47.287Z,37.70
2017-08-21T08:55:15.728Z,35.60
2017-08-21T08:57:44.193Z,36.10
2017-08-21T09:00:12.635Z,37.80
2017-08-21T09:02:41.054Z,34.70
2017-08-21T09:05:09.526Z,38.90
2017-08-21T09:07:37.971Z,35.90
2017-08-21T09:10:06.402Z,41.30
2017-08-21T09:12:34.832Z,32.70
2017-08-21T09:15:03.070Z,35.70
2017-08-21T09:17:31.508Z,33.10
2017-08-21T09:19:59.959Z,30.50
2017-08-21T09:22:28.411Z,33.70
2017-08-21T09:24:56.879Z,32.70
2017-08-21T09:27:25.357Z,33.30
2017-08-21T09:29:53.795Z,32.90
2017-08-21T09:32:22.228Z,35.70
2017-08-21T09:34:50.699Z,36.70
2017-08-21T09:37:19.135Z,36.90
2017-08-21T09:39:47.576Z,35.30
2017-08-21T09:42:16.042Z,40.30
2017-08-21T09:44:44.474Z,43.60
2017-08-21T09:47:12.894Z,43.90
2017-08-21T09:49:41.317Z,44.80
2017-08-21T09:52:09.731Z,44.90
2017-08-21T09:54:38.161Z,47.00
2017-08-21T09:57:06.590Z,47.20
2017-08-21T09:59:35.797Z,42.30
2017-08-21T10:02:05.009Z,46.60
2017-08-21T10:04:33.456Z,46.50
2017-08-21T10:07:01.862Z,39.60
2017-08-21T10:09:30.280Z,42.80
2017-08-21T10:11:58.749Z,43.40
2017-08-21T10:14:27.149Z,40.70
2017-08-21T10:16:55.580Z,43.50
2017-08-21T10:19:24.013Z,46.40
2017-08-21T10:21:52.426Z,43.40
2017-08-21T10:24:20.940Z,40.30
2017-08-21T10:26:49.599Z,36.60
2017-08-21T10:29:18.071Z,41.20
2017-08-21T10:31:46.510Z,39.20
2017-08-21T10:34:14.942Z,42.10
2017-08-21T10:36:43.402Z,43.50
2017-08-21T10:39:11.852Z,37.10
2017-08-21T10:41:40.312Z,35.80
2017-08-21T10:44:08.770Z,36.30
2017-08-21T10:46:37.228Z,32.90
2017-08-21T10:49:05.690Z,34.90
2017-08-21T10:51:34.817Z,32.40
2017-08-21T10:54:03.033Z,32.40
2017-08-21T10:56:31.444Z,29.70
2017-08-21T10:58:59.912Z,33.60
2017-08-21T11:01:28.325Z,38.20
2017-08-21T11:03:56.742Z,37.60
2017-08-21T11:06:25.169Z,34.20
2017-08-21T11:08:53.587Z,34.80
2017-08-21T11:11:22.000Z,34.50
2017-08-21T11:13:50.465Z,28.30
2017-08-21T11:16:18.953Z,32.20
2017-08-21T11:18:47.366Z,28.70
2017-08-21T11:21:15.789Z,32.10
2017-08-21T11:23:44.219Z,34.10
2017-08-21T11:26:12.617Z,38.10
2017-08-21T11:28:41.031Z,37.20
2017-08-21T11:31:09.562Z,32.80
2017-08-21T11:33:37.976Z,34.20
2017-08-21T11:36:06.397Z,33.80
2017-08-21T11:38:34.827Z,31.40
2017-08-21T11:41:03.248Z,30.00
2017-08-21T11:43:31.678Z,35.50
2017-08-21T11:46:00.087Z,34.60
2017-08-21T11:48:28.506Z,38.50
2017-08-21T11:50:56.942Z,36.40
2017-08-21T11:53:25.369Z,36.10
2017-08-21T11:55:53.862Z,32.90
2017-08-21T11:58:22.289Z,35.30
2017-08-21T12:00:50.722Z,29.30
2017-08-21T12:03:19.139Z,34.40
2017-08-21T12:05:47.538Z,31.90
2017-08-21T12:08:15.949Z,31.80
2017-08-21T12:10:44.376Z,31.50
2017-08-21T12:13:12.791Z,34.80
2017-08-21T12:15:41.293Z,36.10
2017-08-21T12:18:09.709Z,38.70
2017-08-21T12:20:38.146Z,35.10
2017-08-21T12:23:06.548Z,38.30
2017-08-21T12:25:34.957Z,35.40
2017-08-21T12:28:03.403Z,35.00
2017-08-21T12:30:31.843Z,27.70
2017-08-21T12:33:00.244Z,33.90
2017-08-21T12:35:28.685Z,31.40
2017-08-21T12:37:57.165Z,33.60
2017-08-21T12:40:25.584Z,40.40
2017-08-21T12:42:53.997Z,37.30
2017-08-21T12:45:22.450Z,37.40
2017-08-21T12:47:50.874Z,33.00
2017-08-21T12:50:19.304Z,33.40
2017-08-21T12:52:47.766Z,33.40
2017-08-21T12:55:16.271Z,37.50
2017-08-21T12:57:44.730Z,35.20
2017-08-21T13:00:13.192Z,33.70
2017-08-21T13:02:41.726Z,35.40
2017-08-21T13:05:10.182Z,37.50
2017-08-21T13:07:38.738Z,36.30
2017-08-21T13:10:07.247Z,34.10
2017-08-21T13:12:35.661Z,36.70
2017-08-21T13:15:04.095Z,36.40
2017-08-21T13:17:32.609Z,39.00
2017-08-21T13:20:01.077Z,36.50
2017-08-21T13:22:29.504Z,36.50
2017-08-21T13:24:57.942Z,37.00
2017-08-21T13:27:26.376Z,37.10
2017-08-21T13:29:55.603Z,40.20
2017-08-21T13:32:24.048Z,40.10
2017-08-21T13:34:52.494Z,37.40
2017-08-21T13:37:20.725Z,41.50
2017-08-21T13:39:49.406Z,38.00
2017-08-21T13:42:17.837Z,37.30
2017-08-21T13:44:46.392Z,37.50
2017-08-21T13:47:14.702Z,38.80
2017-08-21T13:49:43.112Z,39.00
2017-08-21T13:52:11.514Z,37.30
2017-08-21T13:54:39.929Z,39.60
2017-08-21T13:57:08.355Z,40.00
2017-08-21T13:59:36.757Z,37.10
2017-08-21T14:02:05.173Z,38.40
2017-08-21T14:04:33.586Z,38.10
2017-08-21T14:07:02.782Z,38.80
2017-08-21T14:09:31.217Z,38.70
2017-08-21T14:11:59.673Z,40.90
2017-08-21T14:14:28.070Z,40.10
2017-08-21T14:16:56.498Z,39.00
2017-08-21T14:19:24.901Z,38.60
2017-08-21T14:21:53.320Z,39.40
2017-08-21T14:24:21.752Z,37.80
2017-08-21T14:26:50.938Z,37.60
2017-08-21T14:29:19.348Z,37.60
2017-08-21T14:31:47.769Z,37.50
2017-08-21T14:34:16.179Z,39.00
2017-08-21T14:36:44.599Z,40.50
2017-08-21T14:39:13.035Z,37.30
2017-08-21T14:41:41.465Z,39.80
2017-08-21T14:44:09.882Z,39.90
2017-08-21T14:46:38.313Z,39.60
2017-08-21T14:49:06.711Z,38.80
2017-08-21T14:51:35.119Z,38.00
2017-08-21T14:54:03.570Z,40.30
2017-08-21T14:56:31.983Z,39.30
2017-08-21T14:59:00.421Z,39.00
2017-08-21T15:01:28.829Z,39.50
2017-08-21T15:03:57.233Z,40.20
2017-08-21T15:06:25.677Z,38.80
2017-08-21T15:08:54.127Z,42.00
2017-08-21T15:11:23.353Z,40.90
2017-08-21T15:13:51.583Z,40.80
2017-08-21T15:16:20.021Z,36.30
2017-08-21T15:18:48.481Z,42.90
2017-08-21T15:21:16.894Z,38.30
2017-08-21T15:23:45.293Z,39.40
2017-08-21T15:26:13.730Z,40.80
2017-08-21T15:28:42.153Z,40.20
2017-08-21T15:31:10.574Z,41.20
2017-08-21T15:33:39.006Z,42.80
2017-08-21T15:36:07.455Z,39.60
2017-08-21T15:38:35.883Z,42.00
2017-08-21T15:41:04.313Z,38.60
2017-08-21T15:43:32.723Z,43.70
2017-08-21T15:46:01.185Z,42.70
2017-08-21T15:48:29.619Z,39.60
2017-08-21T15:50:58.430Z,40.90
2017-08-21T15:53:26.881Z,41.90
2017-08-21T15:55:55.322Z,40.60
2017-08-21T15:58:23.772Z,40.00
2017-08-21T16:00:52.222Z,42.00
2017-08-21T16:03:20.703Z,42.40
2017-08-21T16:05:49.144Z,45.40
2017-08-21T16:08:17.568Z,45.20
2017-08-21T16:10:46.001Z,44.20
2017-08-21T16:13:14.428Z,44.00
2017-08-21T16:15:42.861Z,46.00
2017-08-21T16:18:11.307Z,46.90
2017-08-21T16:20:39.748Z,43.80
2017-08-21T16:23:08.174Z,45.70
2017-08-21T16:25:36.618Z,46.50
2017-08-21T16:28:05.072Z,44.30
2017-08-21T16:30:33.494Z,45.70
2017-08-21T16:33:01.959Z,47.80
2017-08-21T16:35:30.390Z,51.20
2017-08-21T16:37:58.829Z,51.50
2017-08-21T16:40:27.500Z,51.20
2017-08-21T16:42:55.957Z,54.10
2017-08-21T16:45:24.410Z,52.60
2017-08-21T16:47:52.863Z,52.60
2017-08-21T16:50:21.303Z,54.00
2017-08-21T16:52:49.755Z,57.20
2017-08-21T16:55:18.202Z,58.20
2017-08-21T16:57:46.655Z,57.00
2017-08-21T17:00:15.162Z,57.90
2017-08-21T17:02:43.615Z,56.10
2017-08-21T17:05:12.054Z,52.90
2017-08-21T17:07:40.528Z,58.70
2017-08-21T17:10:10.837Z,57.60
2017-08-21T17:12:39.288Z,57.70
2017-08-21T17:15:07.769Z,59.20
2017-08-21T17:17:36.199Z,58.60
2017-08-21T17:20:03.970Z,54.60
2017-08-21T17:22:32.437Z,54.40
2017-08-21T17:25:00.894Z,55.80
2017-08-21T17:27:29.366Z,57.70
2017-08-21T17:29:57.872Z,59.50
2017-08-21T17:32:26.300Z,61.50
2017-08-21T17:34:54.783Z,64.50
2017-08-21T17:37:23.901Z,65.90
2017-08-21T17:39:52.548Z,67.60
2017-08-21T17:42:20.982Z,68.40
2017-08-21T17:44:49.441Z,68.70
2017-08-21T17:47:18.641Z,69.00
2017-08-21T17:49:47.110Z,69.00
2017-08-21T17:52:15.627Z,69.00
2017-08-21T17:54:45.221Z,68.70
2017-08-21T17:57:13.686Z,69.60
2017-08-21T17:59:42.140Z,68.40
2017-08-21T18:02:10.574Z,66.80
2017-08-21T18:04:39.012Z,67.70
2017-08-21T18:07:07.741Z,67.90
2017-08-21T18:09:36.200Z,71.80
2017-08-21T18:12:04.675Z,75.00
2017-08-21T18:14:33.118Z,71.90
2017-08-21T18:17:01.564Z,74.90
2017-08-21T18:19:30.859Z,75.90
2017-08-21T18:22:02.211Z,75.80
2017-08-21T18:24:30.769Z,76.50
2017-08-21T18:27:00.132Z,78.30
2017-08-21T18:29:28.593Z,78.30
2017-08-21T18:31:57.051Z,78.50
2017-08-21T18:34:25.520Z,78.70
2017-08-21T18:36:53.976Z,80.00
2017-08-21T18:39:22.490Z,79.70
2017-08-21T18:41:50.944Z,80.30
2017-08-21T18:44:19.410Z,80.00
2017-08-21T18:46:47.862Z,80.00
2017-08-21T18:49:16.559Z,80.70
2017-08-21T18:51:46.872Z,80.40
2017-08-21T18:54:15.313Z,81.00
2017-08-21T18:56:43.860Z,81.10
2017-08-21T18:59:12.305Z,81.50
2017-08-21T19:01:41.974Z,81.70
2017-08-21T19:04:10.460Z,82.70
2017-08-21T19:06:38.885Z,81.40
2017-08-21T19:09:07.335Z,81.80
2017-08-21T19:11:35.838Z,82.60
2017-08-21T19:14:04.325Z,82.30
2017-08-21T19:16:33.570Z,82.10
2017-08-21T19:19:04.056Z,81.90
2017-08-21T19:21:33.447Z,82.40
2017-08-21T19:24:01.907Z,83.60
2017-08-21T19:26:30.394Z,84.10
2017-08-21T19:28:58.865Z,83.90
2017-08-21T19:31:27.300Z,85.00
2017-08-21T19:33:55.821Z,85.10
2017-08-21T19:36:24.278Z,85.10
2017-08-21T19:38:52.747Z,85.30
2017-08-21T19:41:21.206Z,85.00
2017-08-21T19:43:50.482Z,86.10
2017-08-21T19:46:18.943Z,85.90
2017-08-21T19:48:47.400Z,87.00
2017-08-21T19:51:15.892Z,86.40
2017-08-21T19:53:44.365Z,87.10
2017-08-21T19:56:12.843Z,86.10
2017-08-21T19:58:41.360Z,87.00
2017-08-21T20:01:09.835Z,86.60
2017-08-21T20:03:38.305Z,87.10
2017-08-21T20:06:06.815Z,87.70
2017-08-21T20:08:35.260Z,88.50
2017-08-21T20:11:05.094Z,88.30
2017-08-21T20:13:33.566Z,88.00
2017-08-21T20:16:04.720Z,88.00
2017-08-21T20:18:33.190Z,88.90
2017-08-21T20:21:01.649Z,88.60
2017-08-21T20:23:30.086Z,88.00
2017-08-21T20:25:58.551Z,88.60
2017-08-21T20:28:26.981Z,88.60
2017-08-21T20:30:55.442Z,88.60
2017-08-21T20:33:23.909Z,88.40
2017-08-21T20:35:52.342Z,89.40
2017-08-21T20:38:20.827Z,89.60
2017-08-21T20:40:49.327Z,88.40
2017-08-21T20:43:17.856Z,89.00
2017-08-21T20:45:46.352Z,88.10
2017-08-21T20:48:14.876Z,88.00
2017-08-21T20:50:43.693Z,89.20
2017-08-21T20:53:12.180Z,89.60
2017-08-21T20:55:40.931Z,90.30
2017-08-21T20:58:09.745Z,89.70
2017-08-21T21:00:38.441Z,87.30
2017-08-21T21:03:06.952Z,87.40
2017-08-21T21:05:35.790Z,87.20
2017-08-21T21:08:04.321Z,87.00
2017-08-21T21:10:33.092Z,86.10
2017-08-21T21:13:01.850Z,85.70
2017-08-21T21:15:31.375Z,85.90
2017-08-21T21:17:59.886Z,85.80
2017-08-21T21:20:28.656Z,84.70
2017-08-21T21:22:57.202Z,84.80
2017-08-21T21:25:25.726Z,83.80
2017-08-21T21:27:54.228Z,81.90
2017-08-21T21:30:22.821Z,79.70
2017-08-21T21:32:51.334Z,78.60
2017-08-21T21:35:20.125Z,77.60
2017-08-21T21:37:48.895Z,77.40
2017-08-21T21:40:17.645Z,77.00
2017-08-21T21:42:48.842Z,76.80
2017-08-21T22:02:48.917Z,75.40
2017-08-21T22:05:17.405Z,76.50
2017-08-21T22:07:50.932Z,76.10
2017-08-21T22:10:22.370Z,75.90
2017-08-21T22:12:54.217Z,75.90
2017-08-21T22:15:24.479Z,75.80
2017-08-21T22:17:53.167Z,76.00
2017-08-21T22:20:21.767Z,76.20
2017-08-21T22:22:50.347Z,75.20
2017-08-21T22:25:19.103Z,74.60
2017-08-21T22:27:47.624Z,73.60
2017-08-21T22:30:16.174Z,73.70
2017-08-21T22:32:44.671Z,74.30
2017-08-21T22:35:13.187Z,74.20
2017-08-21T22:37:42.626Z,74.50
2017-08-21T22:40:14.278Z,74.90
2017-08-21T22:42:43.923Z,74.60
2017-08-21T22:47:48.196Z,75.10
2017-08-21T22:50:16.939Z,74.40
2017-08-21T22:52:45.519Z,73.80
2017-08-21T22:55:18.016Z,74.60
2017-08-21T22:57:51.476Z,74.20
2017-08-21T23:00:20.743Z,74.70
2017-08-21T23:02:51.238Z,76.00
2017-08-21T23:05:19.767Z,75.70
2017-08-21T23:07:48.298Z,76.20
2017-08-21T23:10:16.804Z,76.50
2017-08-21T23:12:46.049Z,76.60
2017-08-21T23:15:14.582Z,76.50
2017-08-21T23:17:43.349Z,76.80
2017-08-21T23:20:12.126Z,76.60
2017-08-21T23:22:43.651Z,76.40
2017-08-21T23:25:12.141Z,76.70
2017-08-21T23:27:40.614Z,77.00
2017-08-21T23:30:09.088Z,77.20
2017-08-21T23:32:37.544Z,77.00
2017-08-21T23:35:06.035Z,77.50
2017-08-21T23:37:34.574Z,78.60
2017-08-21T23:40:03.064Z,78.20
2017-08-21T23:42:31.608Z,78.80
2017-08-21T23:45:00.115Z,78.40
2017-08-21T23:47:28.569Z,79.20
2017-08-21T23:49:57.053Z,80.00
2017-08-21T23:52:25.586Z,81.00
2017-08-21T23:54:54.084Z,83.10
2017-08-21T23:57:22.593Z,85.70
2017-08-21T23:59:51.079Z,86.40
